This is the latest recevied weather packets stored in our database for station/object EPGD. If no packets are shown the sender has not sent any weather packets the latest 10 day(s).
| Time | Temp. | Humidity | Pressure | Rain* | Wind** | Luminosity | Snow |
|---|---|---|---|---|---|---|---|
| 1788428104 | 18.89° C | 68% | 1015 hPa | - | - | - | - |
| 1788426304 | 18.89° C | 68% | 1015 hPa | - | - | - | - |
| 1788424504 | 18.89° C | 68% | 1015 hPa | - | - | - | - |
| 1788422704 | 17.78° C | 72% | 1015 hPa | - | - | - | - |
| 1788420904 | 16.67° C | 77% | 1016 hPa | - | - | - | - |
| 1788419104 | 15.56° C | 77% | 1015 hPa | - | - | - | - |
| 1788417304 | 15° C | 82% | 1016 hPa | - | - | - | - |
| 1788415504 | 13.89° C | 82% | 1016 hPa | - | - | - | - |
| 1788413704 | 13.89° C | 82% | 1016 hPa | - | - | - | - |
| 1788411904 | 13.89° C | 82% | 1016 hPa | - | - | - | - |
| 1788410104 | 13.89° C | 82% | 1016 hPa | - | - | - | - |
| 1788408304 | 13.89° C | 82% | 1016 hPa | - | - | - | - |
| 1788406504 | 13.89° C | 82% | 1016 hPa | - | - | - | - |
| 1788404704 | 13.89° C | 82% | 1016 hPa | - | - | - | - |
| 1788402904 | 13.89° C | 82% | 1016 hPa | - | - | - | - |
| 1788379504 | 15° C | 82% | 1017 hPa | - | - | - | - |
| 1788377704 | 15° C | 82% | 1017 hPa | - | - | - | - |
| 1788374104 | 15.56° C | 77% | 1017 hPa | - | - | - | - |
| 1788370504 | 15.56° C | 77% | 1017 hPa | - | - | - | - |
| 1788366904 | 17.78° C | 67% | 1017 hPa | - | - | - | - |
| 1788361504 | 17.78° C | 67% | 1017 hPa | - | - | - | - |
| 1788359704 | 18.89° C | 63% | 1017 hPa | - | - | - | - |
| 1788356104 | 18.89° C | 68% | 1017 hPa | - | - | - | - |
| 1788354304 | 18.89° C | 68% | 1017 hPa | - | - | - | - |
| 1788352504 | 16.67° C | 77% | 1017 hPa | - | - | - | - |
* Rain since midnight (hover to see other rain measurements)
** Current wind speed in m/s (hover to see current wind gust speed)